Time;durP1;ratioP1;P1;durP2;ratioP2;P2;SDS_P1;SDS_P2;PMS_P1;PMS_P2;Temp;Humidity;BMP_temperature;BMP_pressure;BME280_temperature;BME280_humidity;BME280_pressure;Samples;Min_cycle;Max_cycle;Signal;HPM_P1;HPM_P2
2023/03/09 00:00:58;;;;;;;39.28;26.98;;;;;;;;;;5051369;28;20128;-71
2023/03/09 00:03:25;;;;;;;27.33;20.90;;;;;;;;;;5042485;28;20084;-71
2023/03/09 00:05:56;;;;;;;26.52;19.38;;;;;;;;;;5050267;28;20442;-71
2023/03/09 00:08:23;;;;;;;32.40;23.25;;;;;;;;;;5040292;28;20515;-71
2023/03/09 00:10:52;;;;;;;27.60;20.58;;;;;;;;;;5023859;28;20045;-71
2023/03/09 00:13:19;;;;;;;28.88;21.58;;;;;;;;;;5043194;28;20055;-71
2023/03/09 00:15:49;;;;;;;24.17;19.08;;;;;;;;;;5051406;28;20063;-71
2023/03/09 00:18:17;;;;;;;22.13;17.65;;;;;;;;;;5037082;28;20523;-70
2023/03/09 00:20:43;;;;;;;22.13;17.47;;;;;;;;;;5051262;28;20049;-70
2023/03/09 00:23:10;;;;;;;23.75;18.65;;;;;;;;;;5035924;28;20302;-70
2023/03/09 00:25:36;;;;;;;23.83;18.33;;;;;;;;;;5051554;28;20140;-70
2023/03/09 00:28:03;;;;;;;23.25;17.80;;;;;;;;;;5036079;28;20129;-70
2023/03/09 00:30:29;;;;;;;25.30;19.15;;;;;;;;;;5054888;28;20041;-70
2023/03/09 00:32:56;;;;;;;25.27;18.73;;;;;;;;;;5035772;28;20052;-71
2023/03/09 00:35:22;;;;;;;28.95;20.58;;;;;;;;;;5054710;28;20075;-70
2023/03/09 00:37:49;;;;;;;23.75;18.50;;;;;;;;;;5043606;28;20646;-71
2023/03/09 00:40:15;;;;;;;22.38;17.60;;;;;;;;;;5054483;28;20064;-70
2023/03/09 00:42:42;;;;;;;24.00;19.10;;;;;;;;;;5032601;28;20141;-70
2023/03/09 00:45:08;;;;;;;31.35;21.55;;;;;;;;;;5054788;28;20086;-70
2023/03/09 00:47:35;;;;;;;28.33;20.65;;;;;;;;;;5041583;28;20137;-70
2023/03/09 00:50:01;;;;;;;22.83;18.17;;;;;;;;;;5053519;28;20053;-70
2023/03/09 00:52:28;;;;;;;28.52;19.75;;;;;;;;;;5049734;28;20071;-70
2023/03/09 00:54:54;;;;;;;22.55;17.90;;;;;;;;;;5053489;28;20138;-70
2023/03/09 00:57:21;;;;;;;20.83;16.85;;;;;;;;;;5050532;28;20075;-70
2023/03/09 00:59:47;;;;;;;22.67;16.92;;;;;;;;;;5054278;28;20471;-70
2023/03/09 01:02:14;;;;;;;24.50;18.30;;;;;;;;;;5045542;28;20049;-70
2023/03/09 01:04:40;;;;;;;26.33;18.35;;;;;;;;;;5054359;28;20087;-70
2023/03/09 01:07:06;;;;;;;24.90;18.42;;;;;;;;;;5048245;28;20049;-70
2023/03/09 01:09:33;;;;;;;21.27;16.58;;;;;;;;;;5053060;28;20489;-70
2023/03/09 01:11:59;;;;;;;22.27;16.67;;;;;;;;;;5046250;28;20440;-70
2023/03/09 01:14:25;;;;;;;21.30;16.48;;;;;;;;;;5054166;28;20051;-70
2023/03/09 01:16:52;;;;;;;22.60;16.75;;;;;;;;;;5041154;28;20053;-70
2023/03/09 01:19:18;;;;;;;23.90;17.60;;;;;;;;;;5053117;28;20049;-70
2023/03/09 01:21:45;;;;;;;20.45;16.27;;;;;;;;;;5047503;28;20049;-70
2023/03/09 01:24:11;;;;;;;21.42;16.67;;;;;;;;;;5052351;28;20103;-70
2023/03/09 01:26:37;;;;;;;24.10;17.00;;;;;;;;;;5044747;28;20056;-70
2023/03/09 01:29:04;;;;;;;20.73;16.15;;;;;;;;;;5046001;28;20059;-70
2023/03/09 01:31:30;;;;;;;20.98;16.38;;;;;;;;;;5049678;28;20041;-70
2023/03/09 01:33:56;;;;;;;20.95;16.27;;;;;;;;;;5047988;28;20067;-70
2023/03/09 01:36:23;;;;;;;19.38;15.57;;;;;;;;;;5050080;28;20057;-70
2023/03/09 01:38:49;;;;;;;20.25;15.90;;;;;;;;;;5044831;28;20071;-70
2023/03/09 01:41:16;;;;;;;22.42;16.23;;;;;;;;;;5051312;28;20055;-70
2023/03/09 01:43:44;;;;;;;22.15;16.85;;;;;;;;;;5044616;28;20059;-70
2023/03/09 01:46:16;;;;;;;23.17;17.40;;;;;;;;;;5052058;28;20048;-70
2023/03/09 01:48:43;;;;;;;26.63;17.17;;;;;;;;;;5033389;28;20085;-70
2023/03/09 01:51:09;;;;;;;27.98;22.42;;;;;;;;;;5051632;28;20063;-70
2023/03/09 01:53:36;;;;;;;31.63;26.83;;;;;;;;;;5051947;28;20051;-70
2023/03/09 01:56:02;;;;;;;26.92;20.30;;;;;;;;;;5053504;28;20543;-70
2023/03/09 01:58:29;;;;;;;23.10;17.88;;;;;;;;;;5049193;28;20131;-71
2023/03/09 02:00:56;;;;;;;25.55;18.27;;;;;;;;;;5051961;28;20096;-71
2023/03/09 02:03:35;;;;;;;21.52;16.88;;;;;;;;;;5044925;28;20155;-70
2023/03/09 02:06:04;;;;;;;31.52;20.27;;;;;;;;;;5053461;28;20487;-70
2023/03/09 02:08:31;;;;;;;23.55;17.73;;;;;;;;;;5042688;28;20056;-70
2023/03/09 02:11:00;;;;;;;36.42;20.80;;;;;;;;;;5052089;28;20423;-70
2023/03/09 02:13:35;;;;;;;26.00;17.00;;;;;;;;;;5041367;28;20045;-70
2023/03/09 02:16:02;;;;;;;27.88;18.63;;;;;;;;;;5053472;28;20063;-70
2023/03/09 02:18:29;;;;;;;24.75;17.58;;;;;;;;;;5044642;28;20060;-70
2023/03/09 02:21:14;;;;;;;30.48;19.45;;;;;;;;;;5053080;28;20200;-71
2023/03/09 02:24:04;;;;;;;28.58;19.05;;;;;;;;;;5040979;28;20044;-71
2023/03/09 02:26:51;;;;;;;31.95;19.73;;;;;;;;;;5037777;28;20046;-71
2023/03/09 02:29:17;;;;;;;26.02;17.85;;;;;;;;;;5050434;28;20449;-71
2023/03/09 02:31:43;;;;;;;27.00;18.67;;;;;;;;;;5042087;28;20496;-70
2023/03/09 02:34:10;;;;;;;29.25;18.83;;;;;;;;;;5043624;28;20060;-70
2023/03/09 02:36:37;;;;;;;24.60;17.80;;;;;;;;;;5042493;28;20049;-70
2023/03/09 02:39:22;;;;;;;26.13;17.88;;;;;;;;;;5051468;28;20061;-70
2023/03/09 02:41:49;;;;;;;37.45;20.85;;;;;;;;;;5045258;28;20052;-71
2023/03/09 02:44:15;;;;;;;27.55;17.95;;;;;;;;;;5049739;28;20047;-70
2023/03/09 02:46:42;;;;;;;27.65;18.70;;;;;;;;;;5046163;28;20064;-70
2023/03/09 02:49:08;;;;;;;26.58;18.27;;;;;;;;;;5052701;28;20081;-70
2023/03/09 02:51:34;;;;;;;25.15;17.48;;;;;;;;;;5043483;28;20565;-70
2023/03/09 02:54:01;;;;;;;30.85;19.73;;;;;;;;;;5052011;28;20123;-70
2023/03/09 02:56:27;;;;;;;27.02;18.67;;;;;;;;;;5047956;28;20122;-70
2023/03/09 02:58:54;;;;;;;23.75;17.55;;;;;;;;;;5050276;28;20041;-70
2023/03/09 03:01:20;;;;;;;27.00;17.92;;;;;;;;;;5048868;28;20389;-71
2023/03/09 03:03:47;;;;;;;25.67;18.25;;;;;;;;;;5048831;28;20061;-70
2023/03/09 03:06:13;;;;;;;24.40;17.48;;;;;;;;;;5050149;28;20045;-71
2023/03/09 03:08:39;;;;;;;21.30;16.52;;;;;;;;;;5040787;28;20049;-70
2023/03/09 03:11:06;;;;;;;28.92;18.27;;;;;;;;;;5051575;28;20045;-71
2023/03/09 03:13:32;;;;;;;21.80;15.80;;;;;;;;;;5037003;28;20085;-71
2023/03/09 03:16:02;;;;;;;23.98;16.77;;;;;;;;;;5051929;28;20052;-70
2023/03/09 03:18:29;;;;;;;24.00;17.25;;;;;;;;;;5039886;28;20059;-70
2023/03/09 03:20:56;;;;;;;25.45;17.75;;;;;;;;;;5051928;28;20083;-70
2023/03/09 03:23:22;;;;;;;26.25;18.00;;;;;;;;;;5032803;28;20075;-70
2023/03/09 03:25:49;;;;;;;26.73;17.98;;;;;;;;;;5051687;28;20045;-70
2023/03/09 03:28:15;;;;;;;23.73;17.33;;;;;;;;;;5030412;28;20131;-70
2023/03/09 03:30:41;;;;;;;22.80;17.25;;;;;;;;;;5051818;28;20056;-70
2023/03/09 03:33:08;;;;;;;20.60;15.55;;;;;;;;;;5029217;28;20041;-70
2023/03/09 03:35:34;;;;;;;23.52;16.33;;;;;;;;;;5051672;28;20072;-70
2023/03/09 03:38:01;;;;;;;21.60;15.35;;;;;;;;;;5037307;28;20045;-70
2023/03/09 03:40:27;;;;;;;20.50;15.10;;;;;;;;;;5050977;28;20492;-70
2023/03/09 03:42:54;;;;;;;21.65;16.33;;;;;;;;;;5025450;28;20058;-70
2023/03/09 03:45:21;;;;;;;21.65;15.93;;;;;;;;;;5051497;28;20496;-70
2023/03/09 03:47:47;;;;;;;19.05;14.48;;;;;;;;;;5049328;28;20474;-70
2023/03/09 03:50:13;;;;;;;19.13;14.23;;;;;;;;;;5050946;28;20057;-70
2023/03/09 03:52:40;;;;;;;19.73;14.48;;;;;;;;;;5048430;28;20518;-70
2023/03/09 03:55:06;;;;;;;19.15;14.80;;;;;;;;;;5051109;28;20055;-71
2023/03/09 03:57:33;;;;;;;20.50;15.48;;;;;;;;;;5047047;28;20053;-70
2023/03/09 03:59:59;;;;;;;19.83;14.75;;;;;;;;;;5050331;28;20059;-71
2023/03/09 04:02:26;;;;;;;20.75;15.00;;;;;;;;;;5049630;28;20048;-71
2023/03/09 04:04:52;;;;;;;20.80;15.70;;;;;;;;;;5058303;28;20060;-71
2023/03/09 04:07:18;;;;;;;20.27;15.07;;;;;;;;;;5052479;28;20045;-71
2023/03/09 04:09:45;;;;;;;20.55;14.93;;;;;;;;;;5057721;28;20049;-71
2023/03/09 04:12:11;;;;;;;19.90;14.90;;;;;;;;;;5051200;28;20049;-71
2023/03/09 04:14:38;;;;;;;19.73;14.52;;;;;;;;;;5056714;28;20059;-70
2023/03/09 04:17:04;;;;;;;19.92;15.40;;;;;;;;;;5046268;28;20143;-70
2023/03/09 04:19:31;;;;;;;17.67;13.93;;;;;;;;;;5057319;28;20049;-70
2023/03/09 04:21:57;;;;;;;19.05;14.52;;;;;;;;;;5049984;28;20049;-70
2023/03/09 04:24:23;;;;;;;18.73;14.70;;;;;;;;;;5057916;28;20045;-70
2023/03/09 04:26:50;;;;;;;19.50;14.85;;;;;;;;;;5045635;28;20052;-70
2023/03/09 04:29:16;;;;;;;17.27;14.18;;;;;;;;;;5055238;28;20412;-70
2023/03/09 04:31:42;;;;;;;19.02;14.75;;;;;;;;;;5051472;28;20049;-70
2023/03/09 04:34:10;;;;;;;19.67;14.52;;;;;;;;;;5054651;28;20495;-70
2023/03/09 04:36:36;;;;;;;20.10;14.35;;;;;;;;;;5052142;28;20046;-70
2023/03/09 04:39:04;;;;;;;18.63;14.40;;;;;;;;;;5052614;28;20144;-70
2023/03/09 04:41:31;;;;;;;21.63;15.45;;;;;;;;;;5052821;28;20136;-70
2023/03/09 04:43:57;;;;;;;18.90;14.10;;;;;;;;;;5051398;28;20079;-70
2023/03/09 04:46:23;;;;;;;16.80;12.73;;;;;;;;;;5053014;28;20051;-70
2023/03/09 04:48:50;;;;;;;19.90;14.23;;;;;;;;;;5044867;28;20063;-70
2023/03/09 04:51:16;;;;;;;18.63;13.50;;;;;;;;;;5054841;28;20059;-70
2023/03/09 04:53:43;;;;;;;20.98;14.15;;;;;;;;;;5043785;28;20132;-70
2023/03/09 04:56:09;;;;;;;20.15;13.57;;;;;;;;;;5055942;28;20059;-70
2023/03/09 04:58:35;;;;;;;19.27;13.75;;;;;;;;;;5048123;28;20431;-70
2023/03/09 05:01:02;;;;;;;19.73;13.38;;;;;;;;;;5044678;28;20049;-70
2023/03/09 05:03:28;;;;;;;23.58;14.35;;;;;;;;;;5049852;28;20084;-70
2023/03/09 05:05:55;;;;;;;19.23;13.30;;;;;;;;;;5056676;28;20060;-70
2023/03/09 05:08:21;;;;;;;17.90;12.40;;;;;;;;;;5041708;28;20057;-70
2023/03/09 05:10:47;;;;;;;20.92;13.30;;;;;;;;;;5057465;28;20456;-70
2023/03/09 05:13:14;;;;;;;19.50;13.35;;;;;;;;;;5047367;28;20386;-70
2023/03/09 05:15:40;;;;;;;17.77;12.35;;;;;;;;;;5053906;28;20059;-70
2023/03/09 05:18:07;;;;;;;18.08;12.77;;;;;;;;;;5043901;28;20132;-70
2023/03/09 05:20:34;;;;;;;17.23;12.23;;;;;;;;;;5054067;28;20045;-70
2023/03/09 05:23:01;;;;;;;17.17;12.32;;;;;;;;;;5034725;28;20416;-70
2023/03/09 05:25:27;;;;;;;17.02;11.90;;;;;;;;;;5053976;28;20128;-70
2023/03/09 05:27:53;;;;;;;17.88;11.75;;;;;;;;;;5041403;28;20040;-70
2023/03/09 05:30:20;;;;;;;16.95;12.05;;;;;;;;;;5053573;28;20472;-70
2023/03/09 05:32:48;;;;;;;18.20;12.80;;;;;;;;;;5041086;28;20123;-71
2023/03/09 05:35:14;;;;;;;18.38;12.02;;;;;;;;;;5052882;28;20493;-70
2023/03/09 05:37:41;;;;;;;18.77;13.27;;;;;;;;;;5039906;28;20049;-70
2023/03/09 05:40:10;;;;;;;19.73;12.52;;;;;;;;;;5053679;28;20048;-70
2023/03/09 05:42:36;;;;;;;22.23;13.57;;;;;;;;;;5039965;28;20504;-70
2023/03/09 05:45:04;;;;;;;20.55;13.10;;;;;;;;;;5053550;28;20053;-70
2023/03/09 05:47:31;;;;;;;28.20;14.38;;;;;;;;;;5051905;28;20067;-70
2023/03/09 05:49:57;;;;;;;25.02;14.30;;;;;;;;;;5053473;28;20051;-70
2023/03/09 05:52:24;;;;;;;25.42;14.10;;;;;;;;;;5050474;28;20128;-70
2023/03/09 05:54:50;;;;;;;28.88;15.65;;;;;;;;;;5052190;28;20051;-71
2023/03/09 05:57:17;;;;;;;27.08;14.07;;;;;;;;;;5048597;28;20049;-70
2023/03/09 05:59:43;;;;;;;25.85;14.18;;;;;;;;;;5052904;28;20051;-70
2023/03/09 06:02:09;;;;;;;27.73;14.20;;;;;;;;;;5048799;28;20052;-70
2023/03/09 06:04:36;;;;;;;30.42;15.10;;;;;;;;;;5053404;28;20053;-70
2023/03/09 06:07:02;;;;;;;30.33;14.27;;;;;;;;;;5047587;28;20053;-70
2023/03/09 06:09:28;;;;;;;45.90;17.17;;;;;;;;;;5052844;28;20111;-70
2023/03/09 06:11:55;;;;;;;31.50;14.98;;;;;;;;;;5047099;28;20046;-70
2023/03/09 06:14:22;;;;;;;37.13;15.50;;;;;;;;;;5052600;28;20536;-70
2023/03/09 06:16:48;;;;;;;33.30;14.88;;;;;;;;;;5045907;28;20045;-71
2023/03/09 06:19:15;;;;;;;30.13;14.07;;;;;;;;;;5051637;28;20127;-70
2023/03/09 06:21:41;;;;;;;38.47;16.50;;;;;;;;;;5046933;28;20155;-71
2023/03/09 06:24:08;;;;;;;33.95;14.65;;;;;;;;;;5051394;28;20455;-71
2023/03/09 06:26:35;;;;;;;34.55;14.50;;;;;;;;;;5047275;28;20110;-70
2023/03/09 06:29:01;;;;;;;29.48;12.80;;;;;;;;;;5049264;28;20052;-70
2023/03/09 06:31:27;;;;;;;37.80;15.10;;;;;;;;;;5048734;28;20453;-70
2023/03/09 06:33:54;;;;;;;30.77;13.10;;;;;;;;;;5047099;28;20045;-71
2023/03/09 06:36:20;;;;;;;40.28;14.38;;;;;;;;;;5049439;28;20135;-71
2023/03/09 06:38:47;;;;;;;30.35;13.05;;;;;;;;;;5045454;28;20055;-71
2023/03/09 06:41:14;;;;;;;23.67;11.25;;;;;;;;;;5050140;28;20063;-70
2023/03/09 06:43:41;;;;;;;22.90;11.55;;;;;;;;;;5044223;28;20045;-70
2023/03/09 06:46:08;;;;;;;26.08;12.13;;;;;;;;;;5051619;28;20045;-70
2023/03/09 06:48:34;;;;;;;32.50;12.88;;;;;;;;;;5051377;28;20393;-70
2023/03/09 06:51:01;;;;;;;25.55;12.10;;;;;;;;;;5052415;28;20049;-69
2023/03/09 06:53:27;;;;;;;31.48;13.40;;;;;;;;;;5049004;28;20461;-69
2023/03/09 06:55:53;;;;;;;28.98;13.05;;;;;;;;;;5034929;28;20053;-69
2023/03/09 06:58:20;;;;;;;32.22;13.65;;;;;;;;;;5037969;28;20049;-69
2023/03/09 07:00:46;;;;;;;27.35;12.52;;;;;;;;;;5031983;28;20046;-69
2023/03/09 07:03:15;;;;;;;30.07;13.00;;;;;;;;;;5032661;28;20140;-69
2023/03/09 07:05:45;;;;;;;27.48;14.05;;;;;;;;;;5052440;28;20049;-69
2023/03/09 07:08:11;;;;;;;26.40;12.98;;;;;;;;;;5047094;28;20045;-68
2023/03/09 07:10:37;;;;;;;28.02;13.50;;;;;;;;;;5037651;28;20067;-70
2023/03/09 07:13:04;;;;;;;29.98;13.32;;;;;;;;;;5040123;28;20465;-70
2023/03/09 07:15:30;;;;;;;31.98;14.05;;;;;;;;;;5030819;28;20125;-70
2023/03/09 07:17:57;;;;;;;22.67;12.60;;;;;;;;;;5043242;28;20041;-70
2023/03/09 07:20:24;;;;;;;26.33;12.80;;;;;;;;;;5029687;28;20042;-70
2023/03/09 07:22:51;;;;;;;30.65;13.23;;;;;;;;;;5033584;28;20069;-70
2023/03/09 07:25:18;;;;;;;26.95;12.55;;;;;;;;;;5035368;28;20098;-70
2023/03/09 07:27:44;;;;;;;21.30;12.50;;;;;;;;;;5033979;28;20049;-70
2023/03/09 07:30:11;;;;;;;21.50;12.25;;;;;;;;;;5036347;28;20041;-68
2023/03/09 07:32:37;;;;;;;23.75;12.55;;;;;;;;;;5028373;28;20124;-69
2023/03/09 07:35:04;;;;;;;20.05;12.45;;;;;;;;;;5051276;28;20045;-69
2023/03/09 07:37:30;;;;;;;22.42;11.85;;;;;;;;;;5041727;28;20053;-69
2023/03/09 07:39:56;;;;;;;20.85;12.15;;;;;;;;;;5041497;28;20049;-68
2023/03/09 07:42:23;;;;;;;19.25;12.00;;;;;;;;;;5049418;28;20053;-69
2023/03/09 07:45:02;;;;;;;16.75;9.68;;;;;;;;;;5046181;28;20115;-70
2023/03/09 07:47:31;;;;;;;19.50;10.77;;;;;;;;;;5030165;28;20120;-69
2023/03/09 07:49:58;;;;;;;18.70;10.38;;;;;;;;;;5038375;28;20094;-69
2023/03/09 07:52:30;;;;;;;20.15;10.85;;;;;;;;;;5045849;28;20064;-69
2023/03/09 07:55:00;;;;;;;20.33;11.40;;;;;;;;;;5049097;28;20143;-69
2023/03/09 07:57:30;;;;;;;27.65;12.18;;;;;;;;;;5045384;28;20053;-69
2023/03/09 07:59:57;;;;;;;26.13;12.00;;;;;;;;;;5049557;28;20063;-69
2023/03/09 08:02:23;;;;;;;17.27;10.65;;;;;;;;;;5045843;28;20053;-69
2023/03/09 08:04:50;;;;;;;13.77;9.73;;;;;;;;;;5047750;28;20128;-69
2023/03/09 08:07:16;;;;;;;18.23;10.68;;;;;;;;;;5048176;28;20100;-69
2023/03/09 08:09:43;;;;;;;19.40;10.43;;;;;;;;;;5045126;28;20044;-69
2023/03/09 08:12:09;;;;;;;15.82;10.00;;;;;;;;;;5049794;28;20045;-69
2023/03/09 08:14:36;;;;;;;16.27;9.80;;;;;;;;;;5041745;28;20073;-69
2023/03/09 08:17:03;;;;;;;18.40;11.07;;;;;;;;;;5051183;28;20068;-69
2023/03/09 08:19:30;;;;;;;15.52;9.60;;;;;;;;;;5039369;28;20519;-69
2023/03/09 08:21:56;;;;;;;15.25;9.70;;;;;;;;;;5051245;28;20069;-69
2023/03/09 08:24:23;;;;;;;13.45;9.45;;;;;;;;;;5036508;28;20136;-69
2023/03/09 08:26:49;;;;;;;12.75;9.07;;;;;;;;;;5051451;28;20044;-69
2023/03/09 08:29:15;;;;;;;19.42;11.38;;;;;;;;;;5042147;28;20048;-69
2023/03/09 08:31:42;;;;;;;15.55;10.27;;;;;;;;;;5050921;28;20059;-69
2023/03/09 08:34:08;;;;;;;17.02;11.13;;;;;;;;;;5032386;28;20045;-69
2023/03/09 08:36:35;;;;;;;18.40;12.05;;;;;;;;;;5050409;28;20055;-69
2023/03/09 08:39:01;;;;;;;17.38;11.15;;;;;;;;;;5039944;28;20053;-69
2023/03/09 08:41:27;;;;;;;17.67;11.68;;;;;;;;;;5051506;28;20580;-69
2023/03/09 08:43:56;;;;;;;17.13;11.40;;;;;;;;;;5043762;28;20052;-69
2023/03/09 08:46:22;;;;;;;16.08;11.32;;;;;;;;;;5050685;28;20477;-69
2023/03/09 08:48:49;;;;;;;16.15;10.18;;;;;;;;;;5043454;28;20061;-69
2023/03/09 08:51:15;;;;;;;14.45;10.60;;;;;;;;;;5054046;28;20540;-69
2023/03/09 08:53:42;;;;;;;17.67;10.45;;;;;;;;;;5040219;28;20127;-69
2023/03/09 08:56:09;;;;;;;15.35;9.68;;;;;;;;;;5054366;28;20508;-69
2023/03/09 08:58:36;;;;;;;13.20;9.57;;;;;;;;;;5045249;28;20049;-69
2023/03/09 09:01:03;;;;;;;15.00;9.65;;;;;;;;;;5054651;28;20085;-69
2023/03/09 09:03:30;;;;;;;16.77;9.52;;;;;;;;;;5031447;28;20050;-69
2023/03/09 09:06:04;;;;;;;13.93;8.98;;;;;;;;;;5054123;28;20091;-69
2023/03/09 09:08:30;;;;;;;13.68;8.65;;;;;;;;;;5043374;28;20055;-70
2023/03/09 09:10:57;;;;;;;16.60;8.95;;;;;;;;;;5053937;28;20041;-69
2023/03/09 09:13:23;;;;;;;13.25;9.15;;;;;;;;;;5032630;28;20058;-69
2023/03/09 09:15:53;;;;;;;14.88;9.40;;;;;;;;;;5053202;28;20125;-69
2023/03/09 09:18:20;;;;;;;16.80;9.40;;;;;;;;;;5034096;28;20058;-69
2023/03/09 09:20:52;;;;;;;17.02;9.55;;;;;;;;;;5053731;28;20056;-69
2023/03/09 09:23:18;;;;;;;13.10;9.23;;;;;;;;;;5039038;28;20077;-69
2023/03/09 09:25:45;;;;;;;14.20;9.02;;;;;;;;;;5049316;28;20055;-69
2023/03/09 09:28:11;;;;;;;15.43;9.75;;;;;;;;;;5043699;28;20056;-69
2023/03/09 09:30:37;;;;;;;16.27;9.55;;;;;;;;;;5049773;28;20532;-69
2023/03/09 09:33:04;;;;;;;14.60;10.10;;;;;;;;;;5037542;28;20045;-69
2023/03/09 09:35:31;;;;;;;18.23;10.87;;;;;;;;;;5041944;28;20053;-69
2023/03/09 09:37:59;;;;;;;14.20;9.90;;;;;;;;;;5051889;28;20124;-69
2023/03/09 09:40:25;;;;;;;17.95;9.88;;;;;;;;;;5054030;28;20128;-69
2023/03/09 09:42:52;;;;;;;16.83;9.88;;;;;;;;;;5050529;28;20045;-69
2023/03/09 09:45:24;;;;;;;18.75;10.98;;;;;;;;;;5053137;28;20584;-69
2023/03/09 09:47:51;;;;;;;32.00;25.52;;;;;;;;;;5045918;28;20507;-69
2023/03/09 09:50:17;;;;;;;34.15;26.05;;;;;;;;;;5053697;28;20106;-69
2023/03/09 09:52:46;;;;;;;33.13;20.98;;;;;;;;;;5047076;28;20465;-69
2023/03/09 09:55:19;;;;;;;24.27;17.85;;;;;;;;;;5051701;28;20053;-69
2023/03/09 09:57:48;;;;;;;23.30;14.57;;;;;;;;;;5046785;28;20447;-69
2023/03/09 10:00:19;;;;;;;21.20;13.07;;;;;;;;;;5051304;28;20412;-69
2023/03/09 10:02:56;;;;;;;18.83;13.45;;;;;;;;;;5047102;28;20056;-69
2023/03/09 10:05:29;;;;;;;23.10;12.88;;;;;;;;;;5051059;28;20752;-69
2023/03/09 10:08:00;;;;;;;20.27;10.98;;;;;;;;;;5045112;28;20390;-69
2023/03/09 10:10:28;;;;;;;22.13;11.77;;;;;;;;;;5049610;28;20128;-69
2023/03/09 10:12:56;;;;;;;20.23;11.35;;;;;;;;;;5045362;28;20077;-69
2023/03/09 10:15:27;;;;;;;22.40;12.93;;;;;;;;;;5048313;28;20053;-69
2023/03/09 10:18:06;;;;;;;37.92;29.95;;;;;;;;;;5039673;28;20054;-69
2023/03/09 10:20:36;;;;;;;51.47;41.58;;;;;;;;;;5047199;28;20127;-69
2023/03/09 10:23:11;;;;;;;51.08;41.17;;;;;;;;;;5044084;28;20107;-69
2023/03/09 10:25:38;;;;;;;39.00;31.48;;;;;;;;;;5049552;28;20053;-69
2023/03/09 10:28:10;;;;;;;22.02;17.60;;;;;;;;;;5036409;28;20057;-69
2023/03/09 10:30:55;;;;;;;19.60;13.68;;;;;;;;;;5030182;28;20056;-70
2023/03/09 10:33:31;;;;;;;15.98;11.02;;;;;;;;;;5031941;28;20045;-69
2023/03/09 10:35:57;;;;;;;15.52;9.50;;;;;;;;;;5049115;28;20047;-69
2023/03/09 10:38:23;;;;;;;16.42;9.40;;;;;;;;;;5050683;28;20504;-69
2023/03/09 10:40:52;;;;;;;16.92;9.30;;;;;;;;;;5052942;28;20453;-69
2023/03/09 10:43:32;;;;;;;16.13;9.30;;;;;;;;;;5049614;28;20049;-69
2023/03/09 10:46:07;;;;;;;21.92;11.70;;;;;;;;;;5052172;28;20074;-69
2023/03/09 10:48:34;;;;;;;19.48;15.70;;;;;;;;;;5039536;28;20488;-69
2023/03/09 10:51:04;;;;;;;26.90;17.45;;;;;;;;;;5051866;28;20081;-70
2023/03/09 10:53:34;;;;;;;23.55;16.33;;;;;;;;;;5043245;28;20080;-69
2023/03/09 10:56:20;;;;;;;20.33;13.68;;;;;;;;;;5051962;28;20420;-70
2023/03/09 10:58:47;;;;;;;21.42;14.05;;;;;;;;;;5042735;28;20127;-70
2023/03/09 11:01:16;;;;;;;22.17;8.30;;;;;;;;;;5052440;28;20059;-70
2023/03/09 11:03:43;;;;;;;19.75;7.05;;;;;;;;;;5041934;28;20471;-70
2023/03/09 11:06:12;;;;;;;27.50;5.87;;;;;;;;;;5052033;28;20136;-70
2023/03/09 11:08:42;;;;;;;27.35;5.70;;;;;;;;;;5032100;28;20054;-70
2023/03/09 11:11:29;;;;;;;23.83;5.35;;;;;;;;;;5050900;28;20436;-70
2023/03/09 11:13:55;;;;;;;28.90;5.43;;;;;;;;;;5039125;28;20049;-70
2023/03/09 11:16:34;;;;;;;25.98;5.35;;;;;;;;;;5051508;28;20060;-70
2023/03/09 11:19:14;;;;;;;19.83;4.03;;;;;;;;;;5038615;28;20115;-70
2023/03/09 11:22:01;;;;;;;23.55;4.57;;;;;;;;;;5052001;28;20051;-71
2023/03/09 11:24:28;;;;;;;24.23;5.17;;;;;;;;;;5036943;28;20049;-71
2023/03/09 11:26:55;;;;;;;;;;;;;;;;;;5050918;28;20277;-71
2023/03/09 11:29:21;;;;;;;20.17;3.50;;;;;;;;;;5037108;28;19978;-71
2023/03/09 11:31:48;;;;;;;15.85;3.70;;;;;;;;;;5051827;28;20055;-70
2023/03/09 11:34:35;;;;;;;14.80;4.30;;;;;;;;;;5023709;28;20057;-71
2023/03/09 11:37:21;;;;;;;16.23;4.17;;;;;;;;;;5051571;28;20128;-71
2023/03/09 11:39:49;;;;;;;16.15;3.63;;;;;;;;;;5044755;28;20285;-71
2023/03/09 11:42:17;;;;;;;20.15;4.18;;;;;;;;;;5049168;28;20049;-71
2023/03/09 11:44:45;;;;;;;26.48;4.68;;;;;;;;;;5047419;28;20476;-70
2023/03/09 11:47:28;;;;;;;18.23;4.75;;;;;;;;;;5050412;28;20040;-70
2023/03/09 11:49:56;;;;;;;26.52;5.60;;;;;;;;;;5044993;28;20136;-70
2023/03/09 11:52:27;;;;;;;26.80;5.28;;;;;;;;;;5046784;28;20517;-70
2023/03/09 11:54:56;;;;;;;25.30;5.30;;;;;;;;;;5043039;28;20137;-70
2023/03/09 11:57:23;;;;;;;26.67;5.70;;;;;;;;;;5048055;28;20045;-70
2023/03/09 11:59:55;;;;;;;29.17;5.43;;;;;;;;;;5045866;28;20657;-70
2023/03/09 12:02:40;;;;;;;27.27;5.47;;;;;;;;;;5047284;28;20132;-70
2023/03/09 12:05:11;;;;;;;25.25;5.93;;;;;;;;;;5047149;28;20059;-70
2023/03/09 12:07:41;;;;;;;31.10;6.20;;;;;;;;;;5045663;28;20124;-70
2023/03/09 12:10:34;;;;;;;30.65;6.57;;;;;;;;;;5046819;28;20136;-70
2023/03/09 12:13:04;;;;;;;29.15;7.18;;;;;;;;;;5041348;28;20426;-70
2023/03/09 12:15:30;;;;;;;33.53;6.90;;;;;;;;;;5048442;28;20044;-70
2023/03/09 12:17:58;;;;;;;30.17;7.15;;;;;;;;;;5042855;28;20049;-70
2023/03/09 12:20:24;;;;;;;32.70;7.53;;;;;;;;;;5047096;28;20496;-70
2023/03/09 12:22:51;;;;;;;37.97;8.10;;;;;;;;;;5039432;28;20481;-71
2023/03/09 12:25:19;;;;;;;30.95;6.80;;;;;;;;;;5043128;28;20132;-71
2023/03/09 12:27:49;;;;;;;36.83;6.75;;;;;;;;;;5044242;28;20081;-70
2023/03/09 12:30:22;;;;;;;37.88;6.70;;;;;;;;;;5041534;28;20140;-71
2023/03/09 12:32:48;;;;;;;33.15;7.18;;;;;;;;;;5043220;28;20153;-70
2023/03/09 12:35:21;;;;;;;34.60;7.13;;;;;;;;;;5026923;28;20080;-70
2023/03/09 12:38:07;;;;;;;34.30;6.60;;;;;;;;;;5051784;28;20086;-70
2023/03/09 12:40:37;;;;;;;37.67;7.13;;;;;;;;;;5051021;28;20412;-70
2023/03/09 12:43:13;;;;;;;37.80;6.65;;;;;;;;;;5051769;28;20313;-70
2023/03/09 12:45:39;;;;;;;42.13;7.72;;;;;;;;;;5053927;28;20059;-70
2023/03/09 12:48:11;;;;;;;49.65;8.38;;;;;;;;;;5041887;28;20585;-71
2023/03/09 12:50:45;;;;;;;84.90;9.88;;;;;;;;;;5054751;28;20049;-72
2023/03/09 12:53:12;;;;;;;43.67;7.25;;;;;;;;;;5043653;28;20046;-72
2023/03/09 12:55:38;;;;;;;34.92;5.50;;;;;;;;;;5053288;28;20140;-73
2023/03/09 12:58:20;;;;;;;36.90;6.07;;;;;;;;;;5044208;28;20088;-73
2023/03/09 13:00:51;;;;;;;30.67;5.40;;;;;;;;;;5053640;28;20052;-73
2023/03/09 13:03:31;;;;;;;28.05;4.95;;;;;;;;;;5044172;28;20053;-73
2023/03/09 13:06:02;;;;;;;25.50;5.00;;;;;;;;;;5054698;28;20052;-69
2023/03/09 13:08:31;;;;;;;28.80;5.82;;;;;;;;;;5043338;28;20046;-69
2023/03/09 13:11:17;;;;;;;27.98;5.63;;;;;;;;;;5053986;28;20382;-69
2023/03/09 13:13:45;;;;;;;33.20;6.35;;;;;;;;;;5024541;28;20409;-69
2023/03/09 13:16:30;;;;;;;33.72;5.85;;;;;;;;;;5053124;28;20053;-69
2023/03/09 13:19:18;;;;;;;36.10;6.47;;;;;;;;;;5031620;28;20060;-69
2023/03/09 13:22:08;;;;;;;33.65;6.78;;;;;;;;;;5054642;28;20165;-69
2023/03/09 13:24:40;;;;;;;47.45;6.90;;;;;;;;;;5041592;28;20520;-69
2023/03/09 13:27:10;;;;;;;32.40;6.75;;;;;;;;;;5052673;28;20056;-69
2023/03/09 13:29:38;;;;;;;36.08;6.32;;;;;;;;;;5029096;28;20057;-69
2023/03/09 13:32:33;;;;;;;28.08;5.88;;;;;;;;;;5050979;28;20404;-69
2023/03/09 13:35:02;;;;;;;34.67;7.18;;;;;;;;;;5032238;28;20431;-69
2023/03/09 13:37:32;;;;;;;25.63;5.90;;;;;;;;;;5051938;28;20041;-69
2023/03/09 13:40:24;;;;;;;28.55;4.97;;;;;;;;;;5054209;28;20045;-69
2023/03/09 13:42:52;;;;;;;29.65;5.63;;;;;;;;;;5048346;28;20051;-69
2023/03/09 13:45:19;;;;;;;27.67;5.38;;;;;;;;;;5052691;28;20049;-69
2023/03/09 13:47:50;;;;;;;29.08;4.72;;;;;;;;;;5042931;28;20054;-69
2023/03/09 13:50:17;;;;;;;28.95;4.78;;;;;;;;;;5051996;28;20045;-69
2023/03/09 13:53:02;;;;;;;29.50;5.10;;;;;;;;;;5047074;28;20580;-69
2023/03/09 13:55:29;;;;;;;20.17;4.03;;;;;;;;;;5039363;28;20057;-69
2023/03/09 13:58:25;;;;;;;22.75;4.05;;;;;;;;;;5045612;28;20045;-69
2023/03/09 14:00:52;;;;;;;22.70;4.00;;;;;;;;;;5038068;28;20041;-69
2023/03/09 14:03:18;;;;;;;19.23;4.03;;;;;;;;;;5040330;28;20140;-69
2023/03/09 14:06:02;;;;;;;23.10;4.97;;;;;;;;;;5053113;28;20068;-69
2023/03/09 14:08:51;;;;;;;22.48;4.32;;;;;;;;;;5041917;28;20513;-69
2023/03/09 14:11:20;;;;;;;22.60;4.75;;;;;;;;;;5053099;28;20126;-69
2023/03/09 14:14:08;;;;;;;22.42;4.28;;;;;;;;;;5031572;28;20082;-70
2023/03/09 14:16:35;;;;;;;20.23;4.53;;;;;;;;;;5052129;28;20124;-70
2023/03/09 14:19:03;;;;;;;18.33;4.00;;;;;;;;;;5040465;28;20447;-70
2023/03/09 14:21:29;;;;;;;23.30;4.32;;;;;;;;;;5053262;28;20352;-70
2023/03/09 14:24:16;;;;;;;22.52;4.72;;;;;;;;;;5038531;28;20493;-70
2023/03/09 14:26:43;;;;;;;20.57;4.37;;;;;;;;;;5045493;28;20507;-70
2023/03/09 14:29:21;;;;;;;28.73;5.13;;;;;;;;;;5037630;28;20477;-70
2023/03/09 14:31:48;;;;;;;30.95;5.05;;;;;;;;;;5052667;28;20059;-70